createdAt,value
2018-01-06T00:00:22.693Z,2.67
2018-01-06T00:02:50.262Z,2.50
2018-01-06T00:05:17.833Z,1.60
2018-01-06T00:07:45.437Z,2.60
2018-01-06T00:10:13.719Z,1.10
2018-01-06T00:12:41.272Z,1.23
2018-01-06T00:15:09.574Z,2.10
2018-01-06T00:17:37.124Z,7.10
2018-01-06T00:20:04.670Z,1.00
2018-01-06T00:22:32.182Z,1.13
2018-01-06T00:24:59.732Z,1.00
2018-01-06T00:27:27.247Z,2.07
2018-01-06T00:29:54.843Z,1.10
2018-01-06T00:32:22.353Z,1.30
2018-01-06T00:34:50.618Z,1.13
2018-01-06T00:37:18.956Z,1.13
2018-01-06T00:39:46.483Z,1.03
2018-01-06T00:42:13.998Z,1.53
2018-01-06T00:44:41.541Z,1.60
2018-01-06T00:47:09.092Z,1.03
2018-01-06T00:49:36.612Z,2.73
2018-01-06T00:52:04.123Z,2.00
2018-01-06T00:54:32.430Z,2.93
2018-01-06T00:57:00.706Z,1.00
2018-01-06T00:59:28.970Z,0.83
2018-01-06T01:01:57.254Z,2.80
2018-01-06T01:04:25.585Z,1.27
2018-01-06T01:06:53.103Z,0.93
2018-01-06T01:09:21.397Z,2.87
2018-01-06T01:11:48.979Z,3.67
2018-01-06T01:14:16.494Z,5.10
2018-01-06T01:16:44.754Z,2.60
2018-01-06T01:19:13.038Z,3.07
2018-01-06T01:21:41.311Z,2.67
2018-01-06T01:24:09.588Z,2.03
2018-01-06T01:26:37.913Z,3.40
2018-01-06T01:29:05.414Z,2.97
2018-01-06T01:31:33.003Z,2.00
2018-01-06T01:34:00.515Z,2.97
2018-01-06T01:36:28.006Z,4.27
2018-01-06T01:38:56.287Z,2.43
2018-01-06T01:41:24.550Z,1.80
2018-01-06T01:43:52.826Z,1.50
2018-01-06T01:46:21.092Z,1.73
2018-01-06T01:48:49.398Z,1.93
2018-01-06T01:51:16.954Z,2.20
2018-01-06T01:53:44.466Z,1.30
2018-01-06T01:56:11.971Z,1.57
2018-01-06T01:58:39.482Z,2.60
2018-01-06T02:01:06.975Z,1.90
2018-01-06T02:03:35.585Z,1.27
2018-01-06T02:06:03.078Z,2.27
2018-01-06T02:08:30.655Z,1.10
2018-01-06T02:10:59.654Z,2.00
2018-01-06T02:13:28.003Z,2.80
2018-01-06T02:15:55.482Z,1.27
2018-01-06T02:18:22.995Z,1.20
2018-01-06T02:20:50.534Z,1.10
2018-01-06T02:23:18.090Z,1.80
2018-01-06T02:25:45.655Z,0.90
2018-01-06T02:28:13.206Z,1.07
2018-01-06T02:30:40.775Z,1.50
2018-01-06T02:33:08.328Z,3.27
2018-01-06T02:35:35.818Z,1.30
2018-01-06T02:38:03.331Z,0.70
2018-01-06T02:40:31.603Z,1.23
2018-01-06T02:42:59.138Z,1.20
2018-01-06T02:45:28.325Z,0.97
2018-01-06T02:47:55.964Z,1.00
2018-01-06T02:50:23.478Z,2.03
2018-01-06T02:52:51.766Z,0.93
2018-01-06T02:55:19.262Z,1.63
2018-01-06T02:57:46.787Z,1.33
2018-01-06T03:00:14.310Z,2.00
2018-01-06T03:02:41.804Z,3.43
2018-01-06T03:05:09.683Z,5.13
2018-01-06T03:07:37.234Z,1.57
2018-01-06T03:10:04.786Z,2.07
2018-01-06T03:12:32.287Z,2.93
2018-01-06T03:14:59.795Z,4.00
2018-01-06T03:17:28.054Z,1.87
2018-01-06T03:19:56.330Z,1.70
2018-01-06T03:22:24.894Z,1.40
2018-01-06T03:24:52.415Z,3.00
2018-01-06T03:27:19.906Z,2.10
2018-01-06T03:29:47.510Z,3.20
2018-01-06T03:32:15.070Z,1.83
2018-01-06T03:34:42.638Z,2.83
2018-01-06T03:37:10.138Z,3.20
2018-01-06T03:39:37.647Z,2.80
2018-01-06T03:42:05.207Z,2.50
2018-01-06T03:44:32.721Z,2.83
2018-01-06T03:47:00.214Z,2.13
2018-01-06T03:49:28.506Z,3.13
2018-01-06T03:51:55.999Z,2.03
2018-01-06T03:54:23.510Z,3.10
2018-01-06T03:56:51.073Z,4.83
2018-01-06T03:59:18.583Z,2.00
2018-01-06T04:01:46.078Z,2.70
2018-01-06T04:04:14.462Z,1.90
2018-01-06T04:06:42.718Z,3.13
2018-01-06T04:09:10.223Z,3.17
2018-01-06T04:11:37.739Z,9.70
2018-01-06T04:14:06.016Z,37.03
2018-01-06T04:16:34.307Z,16.47
2018-01-06T04:19:02.579Z,9.47
2018-01-06T04:21:30.856Z,1.87
2018-01-06T04:23:58.355Z,1.30
2018-01-06T04:26:25.870Z,2.40
2018-01-06T04:28:54.130Z,2.30
2018-01-06T04:31:22.431Z,3.37
2018-01-06T04:33:49.923Z,2.20
2018-01-06T04:36:17.451Z,2.03
2018-01-06T04:38:44.950Z,2.57
2018-01-06T04:41:12.459Z,2.40
2018-01-06T04:43:40.022Z,2.80
2018-01-06T04:46:07.538Z,2.57
2018-01-06T04:48:35.148Z,3.07
2018-01-06T04:51:02.667Z,2.87
2018-01-06T04:53:30.260Z,2.27
2018-01-06T04:55:57.770Z,3.07
2018-01-06T04:58:25.262Z,2.57
2018-01-06T05:00:53.538Z,2.37
2018-01-06T05:03:22.148Z,2.10
2018-01-06T05:05:49.706Z,4.30
2018-01-06T05:08:17.263Z,2.10
2018-01-06T05:10:44.810Z,2.13
2018-01-06T05:13:12.302Z,2.70
2018-01-06T05:15:39.810Z,1.40
2018-01-06T05:18:08.066Z,3.67
2018-01-06T05:20:35.823Z,2.47
2018-01-06T05:23:03.330Z,4.07
2018-01-06T05:25:30.843Z,2.93
2018-01-06T05:27:58.342Z,1.30
2018-01-06T05:30:25.898Z,2.30
2018-01-06T05:32:53.397Z,2.97
2018-01-06T05:35:21.018Z,30.83
2018-01-06T05:37:48.522Z,41.53
2018-01-06T05:40:16.060Z,55.10
2018-01-06T05:42:43.568Z,25.67
2018-01-06T05:45:11.926Z,123.83
2018-01-06T05:47:39.422Z,32.10
2018-01-06T05:50:07.702Z,135.10
2018-01-06T05:52:35.270Z,71.90
2018-01-06T05:55:02.854Z,55.90
2018-01-06T05:57:31.070Z,11.13
2018-01-06T05:59:59.355Z,55.77
2018-01-06T06:02:27.623Z,22.63
2018-01-06T06:04:55.894Z,11.70
2018-01-06T06:07:23.488Z,56.50
2018-01-06T06:09:50.991Z,51.90
2018-01-06T06:12:18.507Z,12.10
2018-01-06T06:14:46.063Z,6.90
2018-01-06T06:17:13.622Z,27.13
2018-01-06T06:19:41.182Z,29.20
2018-01-06T06:22:08.748Z,50.80
2018-01-06T06:24:36.246Z,31.00
2018-01-06T06:27:03.755Z,23.37
2018-01-06T06:29:31.254Z,120.20
2018-01-06T06:31:58.771Z,30.80
2018-01-06T06:34:26.334Z,76.23
2018-01-06T06:36:53.843Z,96.73
2018-01-06T06:39:21.338Z,105.13
2018-01-06T06:41:48.854Z,9.70
2018-01-06T06:44:16.358Z,44.10
2018-01-06T06:46:43.874Z,16.60
2018-01-06T06:49:11.374Z,43.03
2018-01-06T06:51:38.893Z,59.70
2018-01-06T06:54:06.494Z,16.40
2018-01-06T06:56:34.006Z,23.23
2018-01-06T06:59:01.502Z,108.13
2018-01-06T07:01:29.778Z,77.50
2018-01-06T07:03:58.039Z,66.03
2018-01-06T07:06:26.332Z,93.57
2018-01-06T07:08:54.602Z,96.60
2018-01-06T07:11:22.900Z,115.07
2018-01-06T07:13:50.410Z,115.70
2018-01-06T07:16:17.935Z,92.00
2018-01-06T07:18:45.448Z,143.90
2018-01-06T07:21:13.739Z,378.97
2018-01-06T07:23:41.310Z,417.53
2018-01-06T07:26:08.858Z,90.20
2018-01-06T07:28:36.390Z,356.30
2018-01-06T07:31:03.978Z,155.07
2018-01-06T07:33:31.542Z,461.00
2018-01-06T07:35:59.067Z,443.63
2018-01-06T07:38:27.335Z,336.83
2018-01-06T07:40:54.934Z,144.47
2018-01-06T07:43:22.439Z,168.67
2018-01-06T07:45:49.974Z,168.63
2018-01-06T07:48:17.515Z,228.53
2018-01-06T07:50:50.702Z,82.40
2018-01-06T07:53:18.226Z,312.27
2018-01-06T07:55:45.731Z,101.03
2018-01-06T07:58:13.255Z,59.23
2018-01-06T08:00:41.526Z,179.33
2018-01-06T08:03:09.830Z,271.37
2018-01-06T08:05:37.331Z,258.17
2018-01-06T08:08:04.846Z,85.53
2018-01-06T08:10:32.354Z,179.73
2018-01-06T08:12:59.891Z,104.20
2018-01-06T08:15:27.391Z,86.93
2018-01-06T08:17:55.678Z,77.83
2018-01-06T08:20:23.942Z,108.07
2018-01-06T08:22:52.564Z,100.77
2018-01-06T08:25:20.062Z,58.80
2018-01-06T08:27:47.578Z,52.70
2018-01-06T08:30:15.079Z,66.37
2018-01-06T08:32:42.903Z,45.53
2018-01-06T08:35:10.409Z,40.83
2018-01-06T08:37:37.927Z,30.43
2018-01-06T08:40:05.460Z,24.93
2018-01-06T08:42:33.729Z,29.23
2018-01-06T08:45:02.005Z,22.37
2018-01-06T08:47:29.547Z,20.57
2018-01-06T08:49:57.046Z,20.53
2018-01-06T08:52:24.571Z,19.87
2018-01-06T08:54:52.834Z,18.40
2018-01-06T08:57:20.351Z,17.87
2018-01-06T08:59:47.854Z,17.10
2018-01-06T09:02:15.711Z,19.27
2018-01-06T09:04:43.527Z,16.50
2018-01-06T09:07:11.034Z,15.53
2018-01-06T09:09:38.530Z,13.70
2018-01-06T09:12:06.042Z,14.83
2018-01-06T09:14:33.550Z,11.17
2018-01-06T09:17:01.051Z,15.47
2018-01-06T09:19:28.562Z,11.13
2018-01-06T09:21:56.067Z,10.63
2018-01-06T09:24:23.575Z,9.20
2018-01-06T09:26:51.498Z,9.47
2018-01-06T09:29:19.011Z,7.43
2018-01-06T09:31:46.511Z,8.80
2018-01-06T09:34:14.027Z,8.70
2018-01-06T09:36:41.522Z,8.03
2018-01-06T09:41:50.398Z,9.03
2018-01-06T09:44:18.674Z,8.07
2018-01-06T09:46:46.933Z,7.00
2018-01-06T09:49:14.443Z,5.80
2018-01-06T09:51:41.938Z,7.50
2018-01-06T09:54:09.446Z,6.70
2018-01-06T09:56:36.938Z,9.30
2018-01-06T09:59:04.446Z,5.93
2018-01-06T10:01:33.057Z,8.40
2018-01-06T10:04:00.584Z,5.07
2018-01-06T10:06:28.847Z,4.90
2018-01-06T10:08:56.359Z,6.23
2018-01-06T10:11:23.895Z,5.20
2018-01-06T10:13:51.431Z,4.90
2018-01-06T10:16:19.698Z,5.83
2018-01-06T10:18:48.006Z,4.37
2018-01-06T10:21:15.506Z,4.03
2018-01-06T10:23:43.001Z,5.37
2018-01-06T10:26:11.279Z,5.60
2018-01-06T10:28:39.555Z,4.50
2018-01-06T10:31:07.835Z,6.67
2018-01-06T10:33:36.103Z,6.90
2018-01-06T10:36:04.378Z,6.60
2018-01-06T10:38:32.642Z,3.73
2018-01-06T10:41:00.163Z,3.80
2018-01-06T10:43:27.658Z,4.50
2018-01-06T10:45:55.166Z,3.17
2018-01-06T10:48:22.662Z,3.47
2018-01-06T10:50:50.179Z,4.13
2018-01-06T10:53:17.679Z,3.33
2018-01-06T10:55:45.201Z,5.40
2018-01-06T10:58:12.700Z,3.60
2018-01-06T11:00:46.015Z,3.20
2018-01-06T11:03:14.288Z,2.60
2018-01-06T11:05:42.609Z,3.23
2018-01-06T11:08:10.465Z,3.20
2018-01-06T11:10:37.975Z,4.10
2018-01-06T11:13:05.476Z,3.37
2018-01-06T11:15:32.990Z,3.17
2018-01-06T11:18:00.482Z,3.90
2018-01-06T11:20:27.994Z,2.87
2018-01-06T11:22:55.499Z,3.07
2018-01-06T11:25:23.022Z,3.30
2018-01-06T11:27:50.518Z,2.00
2018-01-06T11:30:18.033Z,1.93
2018-01-06T11:32:45.571Z,3.40
2018-01-06T11:35:13.063Z,4.17
2018-01-06T11:37:41.346Z,2.63
2018-01-06T11:40:09.651Z,3.33
2018-01-06T11:42:37.207Z,3.90
2018-01-06T11:45:04.852Z,2.70
2018-01-06T11:47:32.402Z,2.73
2018-01-06T11:50:00.782Z,6.13
2018-01-06T11:52:28.442Z,3.00
2018-01-06T11:54:56.723Z,5.03
2018-01-06T11:57:25.011Z,4.10
2018-01-06T11:59:52.511Z,4.37
2018-01-06T12:02:20.798Z,3.03
2018-01-06T12:04:48.300Z,3.47
2018-01-06T12:07:15.851Z,4.20
2018-01-06T12:09:44.118Z,2.97
2018-01-06T12:12:12.394Z,1.83
2018-01-06T12:14:40.658Z,1.83
2018-01-06T12:17:08.499Z,2.33
2018-01-06T12:19:36.758Z,2.17
2018-01-06T12:22:04.250Z,4.20
2018-01-06T12:24:31.762Z,5.70
2018-01-06T12:26:59.259Z,1.70
2018-01-06T12:29:26.841Z,3.10
2018-01-06T12:31:54.327Z,2.20
2018-01-06T12:34:21.948Z,2.50
2018-01-06T12:36:49.548Z,3.03
2018-01-06T12:39:17.063Z,1.97
2018-01-06T12:41:44.564Z,2.30
2018-01-06T12:44:12.082Z,3.20
2018-01-06T12:46:39.579Z,2.97
2018-01-06T12:49:07.090Z,1.80
2018-01-06T12:51:35.149Z,2.87
2018-01-06T12:54:02.680Z,2.10
2018-01-06T12:56:30.181Z,2.00
2018-01-06T12:58:57.702Z,2.10
2018-01-06T13:01:25.206Z,1.73
2018-01-06T13:03:53.498Z,1.70
2018-01-06T13:06:21.762Z,2.03
2018-01-06T13:08:49.279Z,2.93
2018-01-06T13:11:16.780Z,4.73
2018-01-06T13:13:45.139Z,2.90
2018-01-06T13:16:12.673Z,2.40
2018-01-06T13:18:40.204Z,3.03
2018-01-06T13:21:07.755Z,2.80
2018-01-06T13:23:35.325Z,1.70
2018-01-06T13:26:02.856Z,1.80
2018-01-06T13:28:30.399Z,1.37
2018-01-06T13:30:57.899Z,1.77
2018-01-06T13:33:25.419Z,1.70
2018-01-06T13:35:52.927Z,3.57
2018-01-06T13:38:20.484Z,2.30
2018-01-06T13:40:48.003Z,3.50
2018-01-06T13:43:16.511Z,2.20
2018-01-06T13:45:44.027Z,4.20
2018-01-06T13:48:11.530Z,3.37
2018-01-06T13:50:39.046Z,1.47
2018-01-06T13:53:06.552Z,2.90
2018-01-06T13:55:34.062Z,2.70
2018-01-06T13:58:01.567Z,2.20
2018-01-06T14:00:29.082Z,2.23
2018-01-06T14:02:56.629Z,2.13
2018-01-06T14:05:24.150Z,1.63
2018-01-06T14:07:51.660Z,1.53
2018-01-06T14:10:19.954Z,1.70
2018-01-06T14:12:48.215Z,2.23
2018-01-06T14:15:16.500Z,1.37
2018-01-06T14:17:44.814Z,2.40
2018-01-06T14:20:12.364Z,4.03
2018-01-06T14:22:39.863Z,2.70
2018-01-06T14:25:07.416Z,1.70
2018-01-06T14:27:34.914Z,1.80
2018-01-06T14:30:03.194Z,3.93
2018-01-06T14:32:31.462Z,2.67
2018-01-06T14:34:59.743Z,1.97
2018-01-06T14:37:29.875Z,2.80
2018-01-06T14:39:55.570Z,2.93
2018-01-06T14:42:23.940Z,2.20
2018-01-06T14:44:52.230Z,4.67
2018-01-06T14:47:20.491Z,3.63
2018-01-06T14:49:48.006Z,2.50
2018-01-06T14:52:15.544Z,4.60
2018-01-06T14:54:43.073Z,3.07
2018-01-06T14:57:11.338Z,6.47
2018-01-06T14:59:38.830Z,2.83
2018-01-06T15:02:06.345Z,4.90
2018-01-06T15:04:33.884Z,3.30
2018-01-06T15:07:01.396Z,4.50
2018-01-06T15:09:29.700Z,3.80
2018-01-06T15:11:57.214Z,4.67
2018-01-06T15:14:25.478Z,4.37
2018-01-06T15:16:52.990Z,3.73
2018-01-06T15:19:20.486Z,6.80
2018-01-06T15:21:47.995Z,3.67
2018-01-06T15:24:15.494Z,2.90
2018-01-06T15:26:43.011Z,3.50
2018-01-06T15:29:10.544Z,8.77
2018-01-06T15:31:38.822Z,4.30
2018-01-06T15:34:07.082Z,4.30
2018-01-06T15:36:34.598Z,10.77
2018-01-06T15:39:02.142Z,9.03
2018-01-06T15:41:29.656Z,5.57
2018-01-06T15:43:57.154Z,3.17
2018-01-06T15:46:24.670Z,2.53
2018-01-06T15:48:52.208Z,2.97
2018-01-06T15:51:19.716Z,3.53
2018-01-06T15:53:47.210Z,3.40
2018-01-06T15:56:14.722Z,4.00
2018-01-06T15:58:42.994Z,26.77
2018-01-06T16:01:11.270Z,7.20
2018-01-06T16:03:39.535Z,6.27
2018-01-06T16:06:07.051Z,5.47
2018-01-06T16:08:34.557Z,16.27
2018-01-06T16:11:02.843Z,25.00
2018-01-06T16:13:31.110Z,25.80
2018-01-06T16:15:59.414Z,6.30
2018-01-06T16:18:26.918Z,38.50
2018-01-06T16:20:55.926Z,53.07
2018-01-06T16:23:23.489Z,79.87
2018-01-06T16:25:51.813Z,148.23
2018-01-06T16:28:19.334Z,76.83
2018-01-06T16:30:47.604Z,29.87
2018-01-06T16:33:15.894Z,15.20
2018-01-06T16:35:44.200Z,11.30
2018-01-06T16:38:11.730Z,18.80
2018-01-06T16:40:40.000Z,12.93
2018-01-06T16:43:08.281Z,11.70
2018-01-06T16:45:36.538Z,6.73
2018-01-06T16:48:04.059Z,27.47
2018-01-06T16:50:31.601Z,59.80
2018-01-06T16:52:59.123Z,23.43
2018-01-06T16:55:27.436Z,12.80
2018-01-06T16:57:54.965Z,18.97
2018-01-06T17:00:23.265Z,9.73
2018-01-06T17:02:50.779Z,11.73
2018-01-06T17:05:18.324Z,13.20
2018-01-06T17:07:45.887Z,9.67
2018-01-06T17:10:13.438Z,7.07
2018-01-06T17:12:41.009Z,9.73
2018-01-06T17:15:08.505Z,10.80
2018-01-06T17:17:36.018Z,8.87
2018-01-06T17:20:03.518Z,10.67
2018-01-06T17:22:31.073Z,9.80
2018-01-06T17:24:59.386Z,7.10
2018-01-06T17:27:26.902Z,10.80
2018-01-06T17:29:55.162Z,8.03
2018-01-06T17:32:22.716Z,6.90
2018-01-06T17:34:50.213Z,5.83
2018-01-06T17:37:17.730Z,5.23
2018-01-06T17:39:45.273Z,8.33
2018-01-06T17:42:12.782Z,9.93
2018-01-06T17:44:40.278Z,7.47
2018-01-06T17:47:07.778Z,14.63
2018-01-06T17:49:36.063Z,9.83
2018-01-06T17:52:04.326Z,11.63
2018-01-06T17:54:32.652Z,5.57
2018-01-06T17:57:00.188Z,7.00
2018-01-06T17:59:27.749Z,8.57
2018-01-06T18:01:55.246Z,5.30
2018-01-06T18:04:22.800Z,5.23
2018-01-06T18:06:50.349Z,5.00
2018-01-06T18:09:17.913Z,5.67
2018-01-06T18:11:45.414Z,5.80
2018-01-06T18:14:12.976Z,8.83
2018-01-06T18:16:41.294Z,6.00
2018-01-06T18:19:08.814Z,15.03
2018-01-06T18:21:37.126Z,20.40
2018-01-06T18:24:04.650Z,10.13
2018-01-06T18:26:32.965Z,9.33
2018-01-06T18:29:00.474Z,7.53
2018-01-06T18:31:28.289Z,4.57
2018-01-06T18:33:55.802Z,3.60
2018-01-06T18:36:24.062Z,4.30
2018-01-06T18:38:51.626Z,4.87
2018-01-06T18:41:19.164Z,9.70
2018-01-06T18:43:46.729Z,5.80
2018-01-06T18:46:14.277Z,7.37
2018-01-06T18:48:41.845Z,7.53
2018-01-06T18:51:09.450Z,9.27
2018-01-06T18:53:37.077Z,11.97
2018-01-06T18:56:04.630Z,14.10
2018-01-06T18:58:32.252Z,33.77
2018-01-06T19:00:59.776Z,30.43
2018-01-06T19:03:28.130Z,39.27
2018-01-06T19:05:55.686Z,48.30
2018-01-06T19:08:24.781Z,43.27
2018-01-06T19:10:52.339Z,17.10
2018-01-06T19:13:19.884Z,60.33
2018-01-06T19:15:47.448Z,76.07
2018-01-06T19:18:14.999Z,62.43
2018-01-06T19:20:42.644Z,21.87
2018-01-06T19:23:10.189Z,16.63
2018-01-06T19:25:37.901Z,12.10
2018-01-06T19:28:05.458Z,12.27
2018-01-06T19:30:33.034Z,22.70
2018-01-06T19:33:00.591Z,21.13
2018-01-06T19:35:28.932Z,18.17
2018-01-06T19:37:56.523Z,22.00
2018-01-06T19:40:24.093Z,26.53
2018-01-06T19:42:52.405Z,18.40
2018-01-06T19:45:19.992Z,21.67
2018-01-06T19:47:47.515Z,18.70
2018-01-06T19:50:15.091Z,21.77
2018-01-06T19:52:42.646Z,15.63
2018-01-06T19:55:10.205Z,11.30
2018-01-06T19:57:37.805Z,12.30
2018-01-06T20:00:05.379Z,16.30
2018-01-06T20:02:32.921Z,14.87
2018-01-06T20:05:00.489Z,20.50
2018-01-06T20:07:28.042Z,16.47
2018-01-06T20:09:55.613Z,42.37
2018-01-06T20:12:24.679Z,26.23
2018-01-06T20:14:52.265Z,23.50
2018-01-06T20:17:19.914Z,16.20
2018-01-06T20:19:47.581Z,26.77
2018-01-06T20:22:15.145Z,29.23
2018-01-06T20:24:42.717Z,29.00
2018-01-06T20:27:11.046Z,19.93
2018-01-06T20:29:38.634Z,27.50
2018-01-06T20:32:06.186Z,26.33
2018-01-06T20:34:33.758Z,20.47
2018-01-06T20:37:01.415Z,27.37
2018-01-06T20:39:28.982Z,27.70
2018-01-06T20:41:56.520Z,27.87
2018-01-06T20:44:24.092Z,26.27
2018-01-06T20:46:51.646Z,25.37
2018-01-06T20:49:19.195Z,20.37
2018-01-06T20:51:46.765Z,25.80
2018-01-06T20:54:14.331Z,26.00
2018-01-06T20:56:41.901Z,40.07
2018-01-06T20:59:09.443Z,26.87
2018-01-06T21:01:37.009Z,27.53
2018-01-06T21:04:04.548Z,22.07
2018-01-06T21:06:32.114Z,14.43
2018-01-06T21:08:59.664Z,22.33
2018-01-06T21:11:27.234Z,22.67
2018-01-06T21:13:54.790Z,24.13
2018-01-06T21:16:22.431Z,30.60
2018-01-06T21:18:49.986Z,28.13
2018-01-06T21:21:17.581Z,31.10
2018-01-06T21:23:45.142Z,30.03
2018-01-06T21:26:12.710Z,23.27
2018-01-06T21:28:40.267Z,25.00
2018-01-06T21:31:07.828Z,27.03
2018-01-06T21:33:35.386Z,30.33
2018-01-06T21:36:02.958Z,26.60
2018-01-06T21:38:30.688Z,29.50
2018-01-06T21:40:58.258Z,25.90
2018-01-06T21:43:25.804Z,32.80
2018-01-06T21:45:53.377Z,24.70
2018-01-06T21:48:20.930Z,27.60
2018-01-06T21:50:48.502Z,28.97
2018-01-06T21:53:16.063Z,22.10
2018-01-06T21:55:43.633Z,31.07
2018-01-06T21:58:11.186Z,22.07
2018-01-06T22:00:38.937Z,16.13
2018-01-06T22:03:06.480Z,14.63
2018-01-06T22:05:34.026Z,18.33
2018-01-06T22:08:01.590Z,16.00
2018-01-06T22:10:29.138Z,14.67
2018-01-06T22:12:56.698Z,11.37
2018-01-06T22:15:24.250Z,12.10
2018-01-06T22:17:51.819Z,13.73
2018-01-06T22:20:19.365Z,11.80
2018-01-06T22:22:46.940Z,12.00
2018-01-06T22:25:14.493Z,13.77
2018-01-06T22:27:42.065Z,10.47
2018-01-06T22:30:09.618Z,11.00
2018-01-06T22:32:37.195Z,11.70
2018-01-06T22:35:04.765Z,12.50
2018-01-06T22:37:32.330Z,10.40
2018-01-06T22:39:59.957Z,11.13
2018-01-06T22:42:27.529Z,10.47
2018-01-06T22:44:55.083Z,11.37
2018-01-06T22:47:22.647Z,10.67
2018-01-06T22:49:50.193Z,9.30
2018-01-06T22:52:17.809Z,10.00
2018-01-06T22:54:46.134Z,17.10
2018-01-06T22:57:13.701Z,9.30
2018-01-06T22:59:41.336Z,10.63
2018-01-06T23:02:08.965Z,13.70
2018-01-06T23:04:37.278Z,10.63
2018-01-06T23:07:04.850Z,12.83
2018-01-06T23:09:32.508Z,12.30
2018-01-06T23:12:00.087Z,14.00
2018-01-06T23:14:27.641Z,12.87
2018-01-06T23:16:55.209Z,10.83
2018-01-06T23:19:22.849Z,10.53
2018-01-06T23:21:50.507Z,10.80
2018-01-06T23:24:18.209Z,11.90
2018-01-06T23:26:45.858Z,12.30
2018-01-06T23:29:13.430Z,8.10
2018-01-06T23:31:40.981Z,9.37
2018-01-06T23:34:08.551Z,9.23
2018-01-06T23:36:36.142Z,10.57
2018-01-06T23:39:03.988Z,9.77
2018-01-06T23:41:32.306Z,13.00
2018-01-06T23:43:59.873Z,10.87
2018-01-06T23:46:27.409Z,9.43
2018-01-06T23:48:55.003Z,14.43
2018-01-06T23:51:22.561Z,7.17
2018-01-06T23:53:50.161Z,9.97
2018-01-06T23:56:17.714Z,11.77
2018-01-06T23:58:46.050Z,12.10
